Ferndale, California
Current Conditions -  °F | °C
As of 7:53 AM on Friday 31 Oct 2014 (Local Time) from KACV Reporting Station
Overcast Overcast  
Wind Chill: 51°   Ceiling: 11000
Heat Index: 51°   Visibility: 10mi
Dew Point: 51°   Wind: 0mph
Humidity: 100%   Direction: NA
Pressure: 29.86"   Gusts: NA
Location:  40.58°N, 124.26°W
Report Text: KACV 311453Z AUTO 00000KT 10SM FEW070 OVC110 11/11 A2986 RMK AO2 SLP115 60017 T01060106 53002
Loading
Personal Weather Stations






























Interactive Weather Map
Tropical Storm Tracking
New forecast layout! Learn more

10-Day Weather Forecast

Advertisements
Track Severe Weather on mobile